createdAt,value
2018-07-26T00:04:24.279Z,13.54
2018-07-26T00:10:19.315Z,11.73
2018-07-26T00:16:14.258Z,13.81
2018-07-26T00:22:09.272Z,11.7
2018-07-26T00:28:04.305Z,11.45
2018-07-26T00:33:59.315Z,11.51
2018-07-26T00:39:54.291Z,11.3
2018-07-26T00:45:49.335Z,11.32
2018-07-26T00:51:44.351Z,11.63
2018-07-26T00:57:39.321Z,11.1
2018-07-26T01:03:34.336Z,15.02
2018-07-26T01:09:29.456Z,12
2018-07-26T01:15:24.320Z,11.32
2018-07-26T01:21:19.361Z,13.57
2018-07-26T01:27:14.440Z,12.95
2018-07-26T01:33:09.360Z,13.3
2018-07-26T01:39:04.329Z,11.06
2018-07-26T01:44:59.342Z,10.61
2018-07-26T01:50:54.450Z,15.06
2018-07-26T01:56:49.354Z,12.8
2018-07-26T02:02:44.371Z,11.98
2018-07-26T02:08:39.355Z,16.15
2018-07-26T02:14:34.392Z,14.21
2018-07-26T02:20:29.388Z,14.49
2018-07-26T02:26:24.480Z,13.26
2018-07-26T02:32:19.388Z,14.97
2018-07-26T02:38:14.450Z,13.13
2018-07-26T02:44:09.399Z,13.93
2018-07-26T02:50:04.450Z,15.46
2018-07-26T02:55:59.471Z,17.29
2018-07-26T03:01:54.421Z,13.54
2018-07-26T03:07:49.421Z,13.65
2018-07-26T03:13:44.442Z,12.57
2018-07-26T03:19:39.480Z,15.41
2018-07-26T03:25:34.502Z,13.18
2018-07-26T03:31:29.434Z,13.98
2018-07-26T03:37:24.448Z,14.03
2018-07-26T03:43:19.487Z,15
2018-07-26T03:49:14.501Z,15.95
2018-07-26T03:55:09.480Z,15.32
2018-07-26T04:01:04.446Z,15.45
2018-07-26T04:06:59.447Z,15.06
2018-07-26T04:12:54.483Z,17.47
2018-07-26T04:18:49.507Z,18.85
2018-07-26T04:24:44.515Z,17.47
2018-07-26T04:30:39.466Z,16.71
2018-07-26T04:36:34.481Z,17.51
2018-07-26T04:42:29.546Z,19.49
2018-07-26T04:48:24.545Z,18.02
2018-07-26T04:54:19.518Z,21.22
2018-07-26T05:00:14.516Z,16
2018-07-26T05:06:09.507Z,16.52
2018-07-26T05:12:04.539Z,15.93
2018-07-26T05:17:59.564Z,25.23
2018-07-26T05:23:54.556Z,15.58
2018-07-26T05:29:49.555Z,24.38
2018-07-26T05:35:44.523Z,21.42
2018-07-26T05:41:39.551Z,22.51
2018-07-26T05:47:34.572Z,17.97
2018-07-26T05:53:29.652Z,17.57
2018-07-26T05:59:24.569Z,20.44
2018-07-26T06:05:19.623Z,18.51
2018-07-26T06:11:14.602Z,18.06
2018-07-26T06:17:09.594Z,22.4
2018-07-26T06:23:04.560Z,19.51
2018-07-26T06:28:59.608Z,20.67
2018-07-26T06:34:54.569Z,17.08
2018-07-26T06:40:49.596Z,22.47
2018-07-26T06:46:44.606Z,21.01
2018-07-26T06:52:39.583Z,20.07
2018-07-26T06:58:34.650Z,20.95
2018-07-26T07:04:29.605Z,18.48
2018-07-26T07:10:24.613Z,22.57
2018-07-26T07:16:19.609Z,23.76
2018-07-26T07:22:14.611Z,22.36
2018-07-26T07:28:09.594Z,21.1
2018-07-26T07:34:04.626Z,20.53
2018-07-26T07:39:59.628Z,19.59
2018-07-26T07:45:54.703Z,21.17
2018-07-26T07:51:49.635Z,30.34
2018-07-26T07:57:44.651Z,21.34
2018-07-26T08:03:39.757Z,25.44
2018-07-26T08:09:34.661Z,20.33
2018-07-26T08:15:29.665Z,22.55
2018-07-26T08:21:24.727Z,20.09
2018-07-26T08:27:19.706Z,23.59
2018-07-26T08:33:14.691Z,28.81
2018-07-26T08:39:09.760Z,33.36
2018-07-26T08:45:04.678Z,26.58
2018-07-26T08:50:59.682Z,24.19
2018-07-26T08:56:54.742Z,27.8
2018-07-26T09:02:49.762Z,19.58
2018-07-26T09:08:44.742Z,18.51
2018-07-26T09:14:39.712Z,17.74
2018-07-26T09:20:34.736Z,18.75
2018-07-26T09:26:29.728Z,20.21
2018-07-26T09:32:24.715Z,19.68
2018-07-26T09:38:19.741Z,17.59
2018-07-26T09:44:14.776Z,20.18
2018-07-26T09:50:09.753Z,18.49
2018-07-26T09:56:04.776Z,19.42
2018-07-26T10:01:59.738Z,16.28
2018-07-26T10:07:54.830Z,17.87
2018-07-26T10:13:49.738Z,11.46
2018-07-26T10:19:44.758Z,11.91
2018-07-26T10:25:39.752Z,11.74
2018-07-26T10:31:34.765Z,9.31
2018-07-26T10:37:29.779Z,10.23
2018-07-26T10:43:24.804Z,5.96
2018-07-26T10:49:19.808Z,11.64
2018-07-26T10:55:14.832Z,7.57
2018-07-26T11:01:09.824Z,6.63
2018-07-26T11:07:04.809Z,7.49
2018-07-26T11:12:59.900Z,6.81
2018-07-26T11:18:54.891Z,6.9
2018-07-26T11:24:49.828Z,6
2018-07-26T11:30:44.843Z,5.6
2018-07-26T11:36:39.913Z,6.31
2018-07-26T11:42:34.867Z,6.27
2018-07-26T11:48:29.834Z,5.8
2018-07-26T11:54:24.947Z,6.31
2018-07-26T12:00:19.886Z,6.96
2018-07-26T12:06:14.867Z,5.52
2018-07-26T12:12:09.894Z,6.9
2018-07-26T12:18:04.925Z,7
2018-07-26T12:23:59.921Z,11.87
2018-07-26T12:29:54.887Z,14.71
2018-07-26T12:35:49.875Z,18.88
2018-07-26T12:41:44.904Z,16.74
2018-07-26T12:47:39.885Z,13.43
2018-07-26T12:53:34.915Z,10.59
2018-07-26T12:59:29.938Z,11.25
2018-07-26T13:05:24.929Z,9.18
2018-07-26T13:11:19.922Z,8.26
2018-07-26T13:17:14.952Z,7.77
2018-07-26T13:23:09.929Z,7.68
2018-07-26T13:29:04.942Z,12.18
2018-07-26T13:34:59.945Z,11.52
2018-07-26T13:40:54.961Z,9.63
2018-07-26T13:46:49.919Z,9.72
2018-07-26T13:52:45.139Z,9.9
2018-07-26T13:58:40.015Z,10.03
2018-07-26T14:04:34.959Z,9.46
2018-07-26T14:10:30.026Z,9.61
2018-07-26T14:16:25.053Z,6.26
2018-07-26T14:22:20.048Z,7.19
2018-07-26T14:28:14.996Z,6.84
2018-07-26T14:34:09.983Z,7.96
2018-07-26T14:40:05.005Z,7.68
2018-07-26T14:46:00.050Z,9.61
2018-07-26T14:51:55.024Z,8.28
2018-07-26T14:57:50.019Z,7.89
2018-07-26T15:03:45.004Z,11.63
2018-07-26T15:09:40.035Z,13.78
2018-07-26T15:15:35.034Z,12.48
2018-07-26T15:21:30.036Z,10.28
2018-07-26T15:27:25.026Z,11.2
2018-07-26T15:33:20.059Z,12.84
2018-07-26T15:39:15.078Z,13.36
2018-07-26T15:45:10.064Z,14.96
2018-07-26T15:51:05.123Z,12.71
2018-07-26T15:57:00.073Z,14.07
2018-07-26T16:02:55.155Z,13
2018-07-26T16:08:50.064Z,9.73
2018-07-26T16:14:45.084Z,11.4
2018-07-26T16:20:40.118Z,12.5
2018-07-26T16:26:35.097Z,15.79
2018-07-26T16:32:30.091Z,14.96
2018-07-26T16:38:25.070Z,15.5
2018-07-26T16:44:20.112Z,14.72
2018-07-26T16:50:15.098Z,12.06
2018-07-26T16:56:10.079Z,11.28
2018-07-26T17:02:05.163Z,10.16
2018-07-26T17:08:00.116Z,10.47
2018-07-26T17:13:55.127Z,9.55
2018-07-26T17:19:50.163Z,10.47
2018-07-26T17:25:45.138Z,12.95
2018-07-26T17:31:40.113Z,10.86
2018-07-26T17:37:35.208Z,10.09
2018-07-26T17:43:30.138Z,13.35
2018-07-26T17:49:25.127Z,13.1
2018-07-26T17:55:20.197Z,8.86
2018-07-26T18:01:15.157Z,12.31
2018-07-26T18:07:10.173Z,15.16
2018-07-26T18:13:05.167Z,19.71
2018-07-26T18:19:00.207Z,15.26
2018-07-26T18:24:55.185Z,16.89
2018-07-26T18:30:50.221Z,14.76
2018-07-26T18:36:45.185Z,12.49
2018-07-26T18:42:40.220Z,11.23
2018-07-26T18:48:35.211Z,16.08
2018-07-26T18:54:30.236Z,10.72
2018-07-26T19:00:25.261Z,10.81
2018-07-26T19:06:20.229Z,9.68
2018-07-26T19:12:15.221Z,9.5
2018-07-26T19:18:10.220Z,8.52
2018-07-26T19:24:05.239Z,11.33
2018-07-26T19:30:00.242Z,14.32
2018-07-26T19:35:55.333Z,9.06
2018-07-26T19:41:50.284Z,8.57
2018-07-26T19:47:45.260Z,11.7
2018-07-26T19:53:40.304Z,8.72
2018-07-26T19:59:35.273Z,9.34
2018-07-26T20:05:30.250Z,9.82
2018-07-26T20:11:25.237Z,8.59
2018-07-26T20:17:20.259Z,8.83
2018-07-26T20:23:15.364Z,9.12
2018-07-26T20:29:10.271Z,8.07
2018-07-26T20:35:05.243Z,13.55
2018-07-26T20:41:00.270Z,10.97
2018-07-26T20:46:55.268Z,8.6
2018-07-26T20:52:50.306Z,8.28
2018-07-26T20:58:45.324Z,18.8
2018-07-26T21:04:40.356Z,9.29
2018-07-26T21:10:35.280Z,10.63
2018-07-26T21:16:30.321Z,10.07
2018-07-26T21:22:25.339Z,9.94
2018-07-26T21:28:20.301Z,10.24
2018-07-26T21:34:15.401Z,8.4
2018-07-26T21:40:10.385Z,8.3
2018-07-26T21:46:05.395Z,9.78
2018-07-26T21:52:00.310Z,8.26
2018-07-26T21:57:55.354Z,8.16
2018-07-26T22:03:50.348Z,8.5
2018-07-26T22:09:45.385Z,9.34
2018-07-26T22:15:40.382Z,7.55
2018-07-26T22:21:35.330Z,8.63
2018-07-26T22:27:30.379Z,11.35
2018-07-26T22:33:25.349Z,9.59
2018-07-26T22:39:20.375Z,8.76
2018-07-26T22:45:15.434Z,7.75
2018-07-26T22:51:10.358Z,10.48
2018-07-26T22:57:05.403Z,9.17
2018-07-26T23:03:00.368Z,9.87
2018-07-26T23:08:55.404Z,8.43
2018-07-26T23:14:50.484Z,11.2
2018-07-26T23:20:45.413Z,9.27
2018-07-26T23:26:40.412Z,8.72
2018-07-26T23:32:35.550Z,14.03
2018-07-26T23:38:30.424Z,8.49
2018-07-26T23:44:25.495Z,8.1
2018-07-26T23:50:20.444Z,11.62
2018-07-26T23:56:15.425Z,8.4
